Time;durP1;ratioP1;P1;durP2;ratioP2;P2;SDS_P1;SDS_P2;PMS_P1;PMS_P2;Temp;Humidity;BMP_temperature;BMP_pressure;BME280_temperature;BME280_humidity;BME280_pressure;Samples;Min_cycle;Max_cycle;Signal;HPM_P1;HPM_P2
2022/08/21 00:01:42;;;;;;;6.70;1.80;;;;;;;;;;8393160;28;20032;-57
2022/08/21 00:05:50;;;;;;;5.45;2.70;;;;;;;;;;8386993;28;20031;-57
2022/08/21 00:09:50;;;;;;;5.18;2.15;;;;;;;;;;8394856;28;20380;-57
2022/08/21 00:13:50;;;;;;;3.90;2.20;;;;;;;;;;8391165;28;21773;-57
2022/08/21 00:17:50;;;;;;;4.13;2.03;;;;;;;;;;8390455;28;20037;-57
2022/08/21 00:21:51;;;;;;;6.50;2.15;;;;;;;;;;8392345;28;20075;-57
2022/08/21 00:25:52;;;;;;;8.27;2.10;;;;;;;;;;8385804;28;20076;-57
2022/08/21 00:29:53;;;;;;;5.07;2.30;;;;;;;;;;8382061;28;20032;-57
2022/08/21 00:33:53;;;;;;;4.13;2.10;;;;;;;;;;8391272;28;20131;-57
2022/08/21 00:37:54;;;;;;;6.43;2.30;;;;;;;;;;8388624;28;20031;-57
2022/08/21 00:41:56;;;;;;;4.68;2.05;;;;;;;;;;8390405;28;20020;-57
2022/08/21 00:45:57;;;;;;;6.40;2.30;;;;;;;;;;8389193;28;22075;-57
2022/08/21 00:49:57;;;;;;;3.35;2.15;;;;;;;;;;8387323;28;20475;-57
2022/08/21 00:53:59;;;;;;;4.85;1.92;;;;;;;;;;8391840;28;20025;-57
2022/08/21 00:58:02;;;;;;;5.15;1.98;;;;;;;;;;8380520;28;20089;-57
2022/08/21 01:02:04;;;;;;;6.18;1.92;;;;;;;;;;8387424;28;20114;-57
2022/08/21 01:06:04;;;;;;;3.53;1.83;;;;;;;;;;8387102;28;20025;-57
2022/08/21 01:10:12;;;;;;;5.00;1.90;;;;;;;;;;8392572;28;20047;-56
2022/08/21 01:14:17;;;;;;;4.20;1.88;;;;;;;;;;8391112;28;20028;-57
2022/08/21 01:18:19;;;;;;;4.40;2.03;;;;;;;;;;8392589;28;20032;-57
2022/08/21 01:22:19;;;;;;;4.47;1.85;;;;;;;;;;8391755;28;20013;-57
2022/08/21 01:26:21;;;;;;;4.05;1.80;;;;;;;;;;8388413;28;20226;-57
2022/08/21 01:30:23;;;;;;;7.80;1.95;;;;;;;;;;8386258;28;20055;-60
2022/08/21 01:34:25;;;;;;;5.63;1.95;;;;;;;;;;8392731;28;20275;-57
2022/08/21 01:38:32;;;;;;;3.45;1.90;;;;;;;;;;8392725;28;20089;-57
2022/08/21 01:42:32;;;;;;;5.18;2.30;;;;;;;;;;8391173;28;20024;-56
2022/08/21 01:46:32;;;;;;;11.90;2.17;;;;;;;;;;8390916;28;20315;-57
2022/08/21 01:50:34;;;;;;;3.55;1.95;;;;;;;;;;8392318;28;20024;-57
2022/08/21 01:54:34;;;;;;;4.65;2.17;;;;;;;;;;8392611;28;20032;-57
2022/08/21 01:58:36;;;;;;;6.68;2.22;;;;;;;;;;8389568;28;20024;-57
2022/08/21 02:02:36;;;;;;;5.50;2.08;;;;;;;;;;8393346;28;20481;-57
2022/08/21 02:06:36;;;;;;;5.55;2.35;;;;;;;;;;8391191;28;20345;-57
2022/08/21 02:10:37;;;;;;;6.20;1.65;;;;;;;;;;8393621;28;20035;-57
2022/08/21 02:14:37;;;;;;;6.13;2.20;;;;;;;;;;8392123;28;20580;-57
2022/08/21 02:18:37;;;;;;;5.93;1.90;;;;;;;;;;8393890;28;20040;-57
2022/08/21 02:22:44;;;;;;;3.45;1.70;;;;;;;;;;8393662;28;20024;-57
2022/08/21 02:26:45;;;;;;;5.00;1.95;;;;;;;;;;8392762;28;20127;-57
2022/08/21 02:30:47;;;;;;;4.75;1.80;;;;;;;;;;8391789;28;20067;-56
2022/08/21 02:34:48;;;;;;;6.70;2.40;;;;;;;;;;8394216;28;20048;-57
2022/08/21 02:38:49;;;;;;;7.63;2.00;;;;;;;;;;8394018;28;20044;-57
2022/08/21 02:42:50;;;;;;;5.22;1.88;;;;;;;;;;8391740;28;20561;-57
2022/08/21 02:46:50;;;;;;;5.97;2.20;;;;;;;;;;8389635;28;20043;-56
2022/08/21 02:50:52;;;;;;;5.78;2.40;;;;;;;;;;8389555;28;20123;-57
2022/08/21 02:54:52;;;;;;;7.80;2.22;;;;;;;;;;8389568;28;20028;-57
2022/08/21 02:58:54;;;;;;;6.53;2.35;;;;;;;;;;8390102;28;20101;-57
2022/08/21 03:02:55;;;;;;;4.13;2.10;;;;;;;;;;8396370;28;20041;-56
2022/08/21 03:06:55;;;;;;;4.13;1.92;;;;;;;;;;8395078;28;20028;-57
2022/08/21 03:10:55;;;;;;;6.33;2.30;;;;;;;;;;8389740;28;21623;-57
2022/08/21 03:14:56;;;;;;;6.73;2.37;;;;;;;;;;8389262;28;20285;-57
2022/08/21 03:18:56;;;;;;;4.45;2.03;;;;;;;;;;8386183;28;20094;-56
2022/08/21 03:22:56;;;;;;;5.23;2.20;;;;;;;;;;8382523;28;20031;-57
2022/08/21 03:26:58;;;;;;;6.05;2.20;;;;;;;;;;8392841;28;20083;-57
2022/08/21 03:30:58;;;;;;;5.45;2.30;;;;;;;;;;8388557;28;20056;-56
2022/08/21 03:35:00;;;;;;;7.07;2.30;;;;;;;;;;8385826;28;20804;-56
2022/08/21 03:39:00;;;;;;;5.55;2.20;;;;;;;;;;8387433;28;20103;-56
2022/08/21 03:43:02;;;;;;;6.78;2.20;;;;;;;;;;8380591;28;20024;-56
2022/08/21 03:47:03;;;;;;;8.63;2.67;;;;;;;;;;8382534;28;20182;-56
2022/08/21 03:51:03;;;;;;;4.72;2.08;;;;;;;;;;8375651;28;20055;-56
2022/08/21 03:55:03;;;;;;;12.20;2.10;;;;;;;;;;8376176;28;20547;-57
2022/08/21 03:59:04;;;;;;;6.97;2.40;;;;;;;;;;8381481;28;20029;-56
2022/08/21 04:03:04;;;;;;;6.13;2.20;;;;;;;;;;8381923;28;20292;-57
2022/08/21 04:07:04;;;;;;;4.80;2.35;;;;;;;;;;8381722;28;20507;-57
2022/08/21 04:11:05;;;;;;;5.60;2.40;;;;;;;;;;8377660;28;20035;-56
2022/08/21 04:15:06;;;;;;;3.58;2.10;;;;;;;;;;8371293;28;20143;-57
2022/08/21 04:19:07;;;;;;;4.00;1.92;;;;;;;;;;8371887;28;20036;-57
2022/08/21 04:23:07;;;;;;;6.00;2.35;;;;;;;;;;8367638;28;20032;-56
2022/08/21 04:27:07;;;;;;;4.63;2.20;;;;;;;;;;8361461;28;20085;-57
2022/08/21 04:31:08;;;;;;;4.05;2.28;;;;;;;;;;8364805;28;20790;-57
2022/08/21 04:35:09;;;;;;;4.90;2.15;;;;;;;;;;8364981;28;20448;-57
2022/08/21 04:39:09;;;;;;;6.95;2.15;;;;;;;;;;8363726;28;20024;-56
2022/08/21 04:43:11;;;;;;;4.73;2.20;;;;;;;;;;8363949;28;20058;-57
2022/08/21 04:47:11;;;;;;;7.47;2.50;;;;;;;;;;8371835;28;20067;-57
2022/08/21 04:51:15;;;;;;;6.25;2.35;;;;;;;;;;8365177;28;20101;-56
2022/08/21 04:55:17;;;;;;;4.38;2.13;;;;;;;;;;8366245;28;20012;-57
2022/08/21 04:59:20;;;;;;;6.25;2.42;;;;;;;;;;8371327;28;20077;-56
2022/08/21 05:03:21;;;;;;;8.50;2.50;;;;;;;;;;8369074;28;20040;-56
2022/08/21 05:07:26;;;;;;;5.20;2.67;;;;;;;;;;8370319;28;20030;-57
2022/08/21 05:11:26;;;;;;;4.25;2.20;;;;;;;;;;8371952;28;20582;-57
2022/08/21 05:15:26;;;;;;;9.93;2.50;;;;;;;;;;8373459;28;20028;-56
2022/08/21 05:19:27;;;;;;;4.78;2.00;;;;;;;;;;8367631;28;20131;-57
2022/08/21 05:23:27;;;;;;;4.53;2.13;;;;;;;;;;8371385;28;20036;-57
2022/08/21 05:27:29;;;;;;;4.93;2.50;;;;;;;;;;8366461;28;20021;-57
2022/08/21 05:31:29;;;;;;;4.68;2.05;;;;;;;;;;8363713;28;20495;-56
2022/08/21 05:35:30;;;;;;;4.65;2.25;;;;;;;;;;8372419;28;20024;-56
2022/08/21 05:39:31;;;;;;;5.00;2.03;;;;;;;;;;8369510;28;20024;-56
2022/08/21 05:43:35;;;;;;;5.00;2.35;;;;;;;;;;8370605;28;20255;-56
2022/08/21 05:47:36;;;;;;;5.72;2.50;;;;;;;;;;8378104;28;20028;-56
2022/08/21 05:51:36;;;;;;;6.47;2.10;;;;;;;;;;8382869;28;20111;-56
2022/08/21 05:55:37;;;;;;;7.90;2.40;;;;;;;;;;8386582;28;20103;-56
2022/08/21 05:59:37;;;;;;;6.75;2.58;;;;;;;;;;8386247;28;20025;-54
2022/08/21 06:03:38;;;;;;;7.18;2.22;;;;;;;;;;8379392;28;20063;-56
2022/08/21 06:07:45;;;;;;;6.32;2.50;;;;;;;;;;8381342;28;20536;-55
2022/08/21 06:11:45;;;;;;;8.50;2.28;;;;;;;;;;8390021;28;20055;-56
2022/08/21 06:15:46;;;;;;;6.32;2.45;;;;;;;;;;8389390;28;20098;-56
2022/08/21 06:19:50;;;;;;;7.20;2.90;;;;;;;;;;8379921;28;20037;-56
2022/08/21 06:23:50;;;;;;;;;;;;;;;;;;8364718;28;20032;-57
2022/08/21 06:27:51;;;;;;;5.35;2.78;;;;;;;;;;8354277;28;20007;-57
2022/08/21 06:31:51;;;;;;;4.97;2.72;;;;;;;;;;8352958;28;20052;-57
2022/08/21 06:35:51;;;;;;;8.65;2.70;;;;;;;;;;8367000;28;20485;-57
2022/08/21 06:39:51;;;;;;;5.90;2.85;;;;;;;;;;8368115;28;20054;-57
2022/08/21 06:43:52;;;;;;;5.15;2.67;;;;;;;;;;8366845;28;20025;-57
2022/08/21 06:47:52;;;;;;;6.47;2.63;;;;;;;;;;8375262;28;20052;-57
2022/08/21 06:51:52;;;;;;;8.15;2.85;;;;;;;;;;8374786;28;20541;-57
2022/08/21 06:55:53;;;;;;;6.00;2.97;;;;;;;;;;8382444;28;20076;-57
2022/08/21 06:59:53;;;;;;;5.87;2.70;;;;;;;;;;8380767;28;20036;-57
2022/08/21 07:03:53;;;;;;;5.57;2.90;;;;;;;;;;8383489;28;20078;-57
2022/08/21 07:07:54;;;;;;;6.93;2.97;;;;;;;;;;8382546;28;20028;-57
2022/08/21 07:11:55;;;;;;;5.22;2.60;;;;;;;;;;8384490;28;20060;-58
2022/08/21 07:15:55;;;;;;;5.28;2.65;;;;;;;;;;8385269;28;20056;-57
2022/08/21 07:19:57;;;;;;;5.57;2.95;;;;;;;;;;8387062;28;21524;-57
2022/08/21 07:23:58;;;;;;;6.22;2.55;;;;;;;;;;8389952;28;20040;-57
2022/08/21 07:27:58;;;;;;;6.22;2.85;;;;;;;;;;8390851;28;20062;-57
2022/08/21 07:31:58;;;;;;;5.25;2.80;;;;;;;;;;8392142;28;20041;-57
2022/08/21 07:35:59;;;;;;;5.43;2.83;;;;;;;;;;8396281;28;20031;-58
2022/08/21 07:39:59;;;;;;;7.18;2.65;;;;;;;;;;8398912;28;20036;-57
2022/08/21 07:43:59;;;;;;;6.57;2.60;;;;;;;;;;8391589;28;20027;-58
2022/08/21 07:48:00;;;;;;;7.25;2.50;;;;;;;;;;8392929;28;20032;-58
2022/08/21 07:52:00;;;;;;;6.18;2.38;;;;;;;;;;8390640;28;20046;-58
2022/08/21 07:56:01;;;;;;;7.70;2.28;;;;;;;;;;8391056;28;20015;-58
2022/08/21 08:00:02;;;;;;;5.18;2.25;;;;;;;;;;8387511;28;20028;-58
2022/08/21 08:04:03;;;;;;;5.53;2.35;;;;;;;;;;8382507;28;20052;-58
2022/08/21 08:08:04;;;;;;;6.87;2.60;;;;;;;;;;8384009;28;20025;-57
2022/08/21 08:12:04;;;;;;;5.10;2.55;;;;;;;;;;8392414;28;20182;-58
2022/08/21 08:16:05;;;;;;;7.37;2.33;;;;;;;;;;8392360;28;20543;-57
2022/08/21 08:20:06;;;;;;;6.55;2.40;;;;;;;;;;8386262;28;20032;-58
2022/08/21 08:24:06;;;;;;;7.07;2.20;;;;;;;;;;8394502;28;20033;-57
2022/08/21 08:28:07;;;;;;;5.15;2.20;;;;;;;;;;8389531;28;20012;-57
2022/08/21 08:32:07;;;;;;;5.10;2.30;;;;;;;;;;8382033;28;20433;-57
2022/08/21 08:36:12;;;;;;;6.15;2.28;;;;;;;;;;8377852;28;20500;-57
2022/08/21 08:40:22;;;;;;;3.88;2.00;;;;;;;;;;8377977;28;20032;-57
2022/08/21 08:44:22;;;;;;;6.70;2.40;;;;;;;;;;8380522;28;20066;-57
2022/08/21 08:48:45;;;;;;;5.90;2.50;;;;;;;;;;8380376;28;20055;-57
2022/08/21 08:52:48;;;;;;;7.07;2.70;;;;;;;;;;8383655;28;20066;-58
2022/08/21 08:56:52;;;;;;;5.38;2.53;;;;;;;;;;8383693;28;20494;-57
2022/08/21 09:00:53;;;;;;;5.75;2.20;;;;;;;;;;8383525;28;20059;-57
2022/08/21 09:04:54;;;;;;;3.90;1.90;;;;;;;;;;8386211;28;20036;-57
2022/08/21 09:09:01;;;;;;;5.17;2.10;;;;;;;;;;8391149;28;20029;-57
2022/08/21 09:13:10;;;;;;;6.03;2.15;;;;;;;;;;8391327;28;20397;-57
2022/08/21 09:17:26;;;;;;;4.28;1.95;;;;;;;;;;8392213;28;20032;-57
2022/08/21 09:21:48;;;;;;;6.38;2.42;;;;;;;;;;8386148;28;20029;-58
2022/08/21 09:25:55;;;;;;;;;;;;;;;;;;8382180;28;20051;-58
2022/08/21 09:29:57;;;;;;;4.70;2.40;;;;;;;;;;8375108;28;19993;-58
2022/08/21 09:34:03;;;;;;;7.57;2.60;;;;;;;;;;8391434;28;20418;-58
2022/08/21 09:38:07;;;;;;;6.68;2.63;;;;;;;;;;8389972;28;20024;-57
2022/08/21 09:42:21;;;;;;;4.32;2.22;;;;;;;;;;8391800;28;20090;-57
2022/08/21 09:46:23;;;;;;;4.68;2.00;;;;;;;;;;8382805;28;20312;-58
2022/08/21 09:50:24;;;;;;;5.80;2.40;;;;;;;;;;8363691;28;20036;-59
2022/08/21 09:54:32;;;;;;;4.25;2.00;;;;;;;;;;8382942;28;20732;-57
2022/08/21 09:58:33;;;;;;;6.68;1.90;;;;;;;;;;8393127;28;20088;-58
2022/08/21 10:02:34;;;;;;;5.20;2.00;;;;;;;;;;8393698;28;20025;-58
2022/08/21 10:06:35;;;;;;;4.13;2.10;;;;;;;;;;8385194;28;20027;-58
2022/08/21 10:10:36;;;;;;;4.00;2.07;;;;;;;;;;8388689;28;20032;-58
2022/08/21 10:14:49;;;;;;;4.82;2.15;;;;;;;;;;8396900;28;20021;-58
2022/08/21 10:18:49;;;;;;;4.38;1.85;;;;;;;;;;8382920;28;20036;-57
2022/08/21 10:23:17;;;;;;;4.65;2.00;;;;;;;;;;8383583;28;20568;-58
2022/08/21 10:27:24;;;;;;;6.10;2.20;;;;;;;;;;8393438;28;20574;-57
2022/08/21 10:31:48;;;;;;;5.25;2.30;;;;;;;;;;8383756;28;20410;-57
2022/08/21 10:35:56;;;;;;;4.55;2.10;;;;;;;;;;8369829;28;20047;-56
2022/08/21 10:40:04;;;;;;;4.30;2.10;;;;;;;;;;8371802;28;20116;-57
2022/08/21 10:44:23;;;;;;;5.50;2.15;;;;;;;;;;8366086;28;20315;-57
2022/08/21 10:48:38;;;;;;;5.55;2.17;;;;;;;;;;8365498;28;20618;-57
2022/08/21 10:52:57;;;;;;;3.83;2.00;;;;;;;;;;8360251;28;20032;-57
2022/08/21 10:57:07;;;;;;;6.63;2.40;;;;;;;;;;8370843;28;20174;-57
2022/08/21 11:01:10;;;;;;;5.82;2.05;;;;;;;;;;8370480;28;20105;-57
2022/08/21 11:05:17;;;;;;;5.80;2.10;;;;;;;;;;8374714;28;20308;-57
2022/08/21 11:09:23;;;;;;;3.63;1.70;;;;;;;;;;8378053;28;20096;-57
2022/08/21 11:13:32;;;;;;;6.45;1.80;;;;;;;;;;8374980;28;20024;-57
2022/08/21 11:17:35;;;;;;;4.88;2.00;;;;;;;;;;8376893;28;20040;-57
2022/08/21 11:21:43;;;;;;;6.90;1.98;;;;;;;;;;8371395;28;20120;-59
2022/08/21 11:25:49;;;;;;;5.30;1.90;;;;;;;;;;8389305;28;20020;-59
2022/08/21 11:29:54;;;;;;;4.80;2.15;;;;;;;;;;8393379;28;20031;-57
2022/08/21 11:34:01;;;;;;;3.90;1.85;;;;;;;;;;8378088;28;20033;-57
2022/08/21 11:38:08;;;;;;;4.25;2.08;;;;;;;;;;8377061;28;20017;-57
2022/08/21 11:42:28;;;;;;;4.25;1.90;;;;;;;;;;8374228;28;20031;-57
2022/08/21 11:47:07;;;;;;;3.35;1.95;;;;;;;;;;8380245;28;20587;-57
2022/08/21 11:51:12;;;;;;;5.50;1.98;;;;;;;;;;8332273;28;20081;-59
2022/08/21 11:55:16;;;;;;;4.35;2.10;;;;;;;;;;8376143;28;20055;-59
2022/08/21 11:59:20;;;;;;;3.08;1.92;;;;;;;;;;8408134;28;20020;-58
2022/08/21 12:03:29;;;;;;;4.00;1.75;;;;;;;;;;8403635;28;20056;-58
2022/08/21 12:07:29;;;;;;;3.22;2.10;;;;;;;;;;8402430;28;20433;-58
2022/08/21 12:11:29;;;;;;;3.63;1.90;;;;;;;;;;8405144;28;20024;-58
2022/08/21 12:15:30;;;;;;;6.10;2.07;;;;;;;;;;8394484;28;20039;-58
2022/08/21 12:19:31;;;;;;;4.65;1.77;;;;;;;;;;8384879;28;20358;-58
2022/08/21 12:23:34;;;;;;;4.35;2.00;;;;;;;;;;8374665;28;20044;-58
2022/08/21 12:27:46;;;;;;;3.22;1.98;;;;;;;;;;8370947;28;20039;-58
2022/08/21 12:31:48;;;;;;;3.40;1.90;;;;;;;;;;8379537;28;20068;-58
2022/08/21 12:35:50;;;;;;;4.90;2.15;;;;;;;;;;8380261;28;20474;-59
2022/08/21 12:39:52;;;;;;;3.93;2.10;;;;;;;;;;8378717;28;20089;-58
2022/08/21 12:43:56;;;;;;;4.50;2.30;;;;;;;;;;8388008;28;20025;-59
2022/08/21 12:47:56;;;;;;;5.38;2.00;;;;;;;;;;8388948;28;20166;-58
2022/08/21 12:52:16;;;;;;;5.65;2.35;;;;;;;;;;8379730;28;20039;-58
2022/08/21 12:56:18;;;;;;;4.07;2.17;;;;;;;;;;8382079;28;20016;-58
2022/08/21 13:00:21;;;;;;;3.92;2.20;;;;;;;;;;8385767;28;20036;-58
2022/08/21 13:04:22;;;;;;;3.70;2.00;;;;;;;;;;8374466;28;20111;-58
2022/08/21 13:08:24;;;;;;;5.97;2.40;;;;;;;;;;8379860;28;20028;-58
2022/08/21 13:12:25;;;;;;;4.43;1.98;;;;;;;;;;8382709;28;20083;-58
2022/08/21 13:16:26;;;;;;;3.90;2.22;;;;;;;;;;8383755;28;20037;-58
2022/08/21 13:20:37;;;;;;;4.60;2.05;;;;;;;;;;8381660;28;20032;-58
2022/08/21 13:24:38;;;;;;;3.20;2.00;;;;;;;;;;8381013;28;20052;-58
2022/08/21 13:28:38;;;;;;;3.13;1.80;;;;;;;;;;8372096;28;20039;-58
2022/08/21 13:32:40;;;;;;;5.07;1.70;;;;;;;;;;8376621;28;20048;-59
2022/08/21 13:36:42;;;;;;;5.10;2.00;;;;;;;;;;8375626;28;20411;-59
2022/08/21 13:40:45;;;;;;;4.27;1.90;;;;;;;;;;8380879;28;20020;-59
2022/08/21 13:44:47;;;;;;;3.13;1.75;;;;;;;;;;8387398;28;20043;-59
2022/08/21 13:48:48;;;;;;;2.88;1.77;;;;;;;;;;8383305;28;20033;-59
2022/08/21 13:52:53;;;;;;;4.17;2.03;;;;;;;;;;8383508;28;20590;-59
2022/08/21 13:56:54;;;;;;;3.65;2.00;;;;;;;;;;8386510;28;20321;-64
2022/08/21 14:00:56;;;;;;;4.07;1.90;;;;;;;;;;8381616;28;20036;-59
2022/08/21 14:04:58;;;;;;;3.47;2.13;;;;;;;;;;8387465;28;20029;-59
2022/08/21 14:08:58;;;;;;;;;;;;;;;;;;8383862;28;20551;-58
2022/08/21 14:13:00;;;;;;;2.58;1.90;;;;;;;;;;8384063;28;19916;-58
2022/08/21 14:17:06;;;;;;;4.03;1.85;;;;;;;;;;8381989;28;20063;-58
2022/08/21 14:21:07;;;;;;;4.97;2.00;;;;;;;;;;8380407;28;20427;-58
2022/08/21 14:25:10;;;;;;;3.20;1.70;;;;;;;;;;8382117;28;20627;-58
2022/08/21 14:29:12;;;;;;;4.88;2.30;;;;;;;;;;8382476;28;20463;-58
2022/08/21 14:33:18;;;;;;;5.82;2.33;;;;;;;;;;8384092;28;20369;-58
2022/08/21 14:37:18;;;;;;;5.50;2.10;;;;;;;;;;8379937;28;20035;-58
2022/08/21 14:41:23;;;;;;;2.83;1.90;;;;;;;;;;8387644;28;20016;-58
2022/08/21 14:45:23;;;;;;;4.63;2.00;;;;;;;;;;8383021;28;20289;-58
2022/08/21 14:49:27;;;;;;;4.93;1.95;;;;;;;;;;8369499;28;20028;-58
2022/08/21 14:53:27;;;;;;;7.57;2.25;;;;;;;;;;8381620;28;20024;-58
2022/08/21 14:57:29;;;;;;;3.83;1.92;;;;;;;;;;8375421;28;20027;-58
2022/08/21 15:01:29;;;;;;;6.22;2.00;;;;;;;;;;8377982;28;20033;-58
2022/08/21 15:05:29;;;;;;;5.13;1.90;;;;;;;;;;8385798;28;20035;-58
2022/08/21 15:09:30;;;;;;;3.20;1.77;;;;;;;;;;8405205;28;20259;-58
2022/08/21 15:13:30;;;;;;;3.30;1.90;;;;;;;;;;8398937;28;20026;-58
2022/08/21 15:17:30;;;;;;;2.55;2.00;;;;;;;;;;8401689;28;20028;-59
2022/08/21 15:21:31;;;;;;;2.27;1.67;;;;;;;;;;8407925;28;20455;-58
2022/08/21 15:25:31;;;;;;;3.93;1.97;;;;;;;;;;8392413;28;20759;-58
2022/08/21 15:29:31;;;;;;;3.17;1.90;;;;;;;;;;8388174;28;20140;-58
2022/08/21 15:33:32;;;;;;;3.07;1.80;;;;;;;;;;8394950;28;20044;-58
2022/08/21 15:37:32;;;;;;;4.53;2.00;;;;;;;;;;8399153;28;20135;-58
2022/08/21 15:41:32;;;;;;;3.00;1.83;;;;;;;;;;8391820;28;20023;-58
2022/08/21 15:45:36;;;;;;;4.47;1.92;;;;;;;;;;8389076;28;20058;-58
2022/08/21 15:49:36;;;;;;;3.67;1.92;;;;;;;;;;8391049;28;20024;-58
2022/08/21 15:53:39;;;;;;;5.47;1.97;;;;;;;;;;8387200;28;20517;-58
2022/08/21 15:57:44;;;;;;;4.03;2.00;;;;;;;;;;8378541;28;20031;-58
2022/08/21 16:01:44;;;;;;;4.25;1.90;;;;;;;;;;8389603;28;20056;-57
2022/08/21 16:05:48;;;;;;;3.25;1.92;;;;;;;;;;8386384;28;20430;-58
2022/08/21 16:09:48;;;;;;;4.22;2.00;;;;;;;;;;8397537;28;20080;-58
2022/08/21 16:13:49;;;;;;;3.25;1.80;;;;;;;;;;8402865;28;20102;-58
2022/08/21 16:17:50;;;;;;;2.83;1.83;;;;;;;;;;8393816;28;20040;-58
2022/08/21 16:21:51;;;;;;;4.73;2.13;;;;;;;;;;8404355;28;20070;-57
2022/08/21 16:25:51;;;;;;;4.53;2.10;;;;;;;;;;8403638;28;20049;-58
2022/08/21 16:29:51;;;;;;;5.93;2.03;;;;;;;;;;8404897;28;20048;-58
2022/08/21 16:33:54;;;;;;;5.43;2.05;;;;;;;;;;8392730;28;20037;-58
2022/08/21 16:37:54;;;;;;;;;;;;;;;;;;8400188;28;20055;-58
2022/08/21 16:41:54;;;;;;;7.15;2.42;;;;;;;;;;8400591;28;20049;-58
2022/08/21 16:45:57;;;;;;;3.53;2.00;;;;;;;;;;8398894;28;20198;-59
2022/08/21 16:49:57;;;;;;;2.58;1.88;;;;;;;;;;8403522;28;20127;-58
2022/08/21 16:53:57;;;;;;;2.90;1.75;;;;;;;;;;8402387;28;20039;-58
2022/08/21 16:57:59;;;;;;;4.90;2.00;;;;;;;;;;8394313;28;20027;-58
2022/08/21 17:02:14;;;;;;;3.90;1.85;;;;;;;;;;8395035;28;20032;-57
2022/08/21 17:06:14;;;;;;;3.38;1.88;;;;;;;;;;8381783;28;20528;-58
2022/08/21 17:10:16;;;;;;;2.58;1.63;;;;;;;;;;8390815;28;20028;-58
2022/08/21 17:14:20;;;;;;;4.05;2.00;;;;;;;;;;8394954;28;20417;-58
2022/08/21 17:18:21;;;;;;;4.18;2.08;;;;;;;;;;8393319;28;20051;-58
2022/08/21 17:22:22;;;;;;;3.40;1.70;;;;;;;;;;8396776;28;20096;-57
2022/08/21 17:26:22;;;;;;;2.72;1.70;;;;;;;;;;8397259;28;20013;-58
2022/08/21 17:30:22;;;;;;;3.25;1.83;;;;;;;;;;8396735;28;20040;-58
2022/08/21 17:34:23;;;;;;;3.80;1.77;;;;;;;;;;8400099;28;20048;-58
2022/08/21 17:38:23;;;;;;;2.53;1.58;;;;;;;;;;8398687;28;20123;-58
2022/08/21 17:42:24;;;;;;;1.92;1.63;;;;;;;;;;8396745;28;20514;-58
2022/08/21 17:46:26;;;;;;;3.72;1.92;;;;;;;;;;8398410;28;20033;-58
2022/08/21 17:50:26;;;;;;;4.07;1.60;;;;;;;;;;8397843;28;20028;-58
2022/08/21 17:54:27;;;;;;;3.42;1.67;;;;;;;;;;8397323;28;20664;-58
2022/08/21 17:58:27;;;;;;;2.17;1.65;;;;;;;;;;8393897;28;20020;-58
2022/08/21 18:02:30;;;;;;;4.32;1.73;;;;;;;;;;8389887;28;20044;-58
2022/08/21 18:06:30;;;;;;;4.38;1.63;;;;;;;;;;8391234;28;20020;-58
2022/08/21 18:10:30;;;;;;;2.93;1.73;;;;;;;;;;8389005;28;20040;-58
2022/08/21 18:14:32;;;;;;;2.65;1.70;;;;;;;;;;8383934;28;20093;-58
2022/08/21 18:18:38;;;;;;;3.17;1.90;;;;;;;;;;8379352;28;20094;-58
2022/08/21 18:22:38;;;;;;;2.75;1.90;;;;;;;;;;8380390;28;20028;-58
2022/08/21 18:26:39;;;;;;;4.07;1.80;;;;;;;;;;8388253;28;20039;-58
2022/08/21 18:30:41;;;;;;;3.60;1.63;;;;;;;;;;8378837;28;20060;-58
2022/08/21 18:34:41;;;;;;;3.55;1.70;;;;;;;;;;8376587;28;20244;-59
2022/08/21 18:38:41;;;;;;;4.18;1.80;;;;;;;;;;8373021;28;20028;-58
2022/08/21 18:42:44;;;;;;;3.88;2.00;;;;;;;;;;8373860;28;20339;-59
2022/08/21 18:46:47;;;;;;;3.20;1.55;;;;;;;;;;8375149;28;20692;-58
2022/08/21 18:50:48;;;;;;;2.55;1.85;;;;;;;;;;8378176;28;20510;-58
2022/08/21 18:54:48;;;;;;;5.57;2.00;;;;;;;;;;8382922;28;20135;-59
2022/08/21 18:58:49;;;;;;;8.82;1.77;;;;;;;;;;8386049;28;20071;-58
2022/08/21 19:02:51;;;;;;;7.45;1.73;;;;;;;;;;8378436;28;20047;-57
2022/08/21 19:06:51;;;;;;;3.75;2.00;;;;;;;;;;8379482;28;20029;-57
2022/08/21 19:10:54;;;;;;;5.25;1.98;;;;;;;;;;8366386;28;20020;-62
2022/08/21 19:14:54;;;;;;;5.47;1.93;;;;;;;;;;8354429;28;20096;-59
2022/08/21 19:18:54;;;;;;;9.57;2.10;;;;;;;;;;8345279;28;20052;-59
2022/08/21 19:22:55;;;;;;;3.67;2.10;;;;;;;;;;8339838;28;20677;-59
2022/08/21 19:26:56;;;;;;;6.47;2.00;;;;;;;;;;8340431;28;20289;-59
2022/08/21 19:31:03;;;;;;;8.90;2.13;;;;;;;;;;8341146;28;21408;-59
2022/08/21 19:35:04;;;;;;;6.35;1.90;;;;;;;;;;8346424;28;20037;-59
2022/08/21 19:39:05;;;;;;;6.72;2.10;;;;;;;;;;8352502;28;20845;-58
2022/08/21 19:43:08;;;;;;;4.30;2.17;;;;;;;;;;8355490;28;20024;-59
2022/08/21 19:51:28;;;;;;;8.95;2.20;;;;;;;;;;8358924;28;19935;-59
2022/08/21 19:55:29;;;;;;;10.55;2.20;;;;;;;;;;8357817;28;20036;-59
2022/08/21 19:59:29;;;;;;;7.70;1.90;;;;;;;;;;8356907;28;20017;-59
2022/08/21 20:03:30;;;;;;;6.05;1.90;;;;;;;;;;8357190;28;20551;-59
2022/08/21 20:07:30;;;;;;;4.33;2.00;;;;;;;;;;8355297;28;20135;-60
2022/08/21 20:11:33;;;;;;;5.18;2.03;;;;;;;;;;8358089;28;20278;-58
2022/08/21 20:15:33;;;;;;;4.55;1.67;;;;;;;;;;8359306;28;20036;-59
2022/08/21 20:19:34;;;;;;;5.95;1.98;;;;;;;;;;8353095;28;20602;-58
2022/08/21 20:23:34;;;;;;;4.05;1.95;;;;;;;;;;8357501;28;20399;-58
2022/08/21 20:27:35;;;;;;;4.57;2.10;;;;;;;;;;8357455;28;20024;-58
2022/08/21 20:31:35;;;;;;;4.72;2.22;;;;;;;;;;8355839;28;20094;-59
2022/08/21 20:35:35;;;;;;;5.05;1.85;;;;;;;;;;8355316;28;20400;-60
2022/08/21 20:39:36;;;;;;;6.65;2.00;;;;;;;;;;8348291;28;20031;-59
2022/08/21 20:43:37;;;;;;;3.08;1.90;;;;;;;;;;8347869;28;20358;-59
2022/08/21 20:47:37;;;;;;;3.45;1.92;;;;;;;;;;8352719;28;20071;-59
2022/08/21 20:51:41;;;;;;;5.13;2.15;;;;;;;;;;8352018;28;20075;-60
2022/08/21 20:55:43;;;;;;;4.75;2.00;;;;;;;;;;8353880;28;20132;-59
2022/08/21 20:59:47;;;;;;;4.60;2.20;;;;;;;;;;8352532;28;20062;-59
2022/08/21 21:03:54;;;;;;;8.95;2.22;;;;;;;;;;8351078;28;20041;-58
2022/08/21 21:08:12;;;;;;;4.45;2.10;;;;;;;;;;8351110;28;20020;-58
2022/08/21 21:12:21;;;;;;;3.88;2.00;;;;;;;;;;8348575;28;20162;-59
2022/08/21 21:16:26;;;;;;;3.67;1.60;;;;;;;;;;8349060;28;20564;-59
2022/08/21 21:20:53;;;;;;;4.03;1.52;;;;;;;;;;8350780;28;20065;-59
2022/08/21 21:24:53;;;;;;;3.28;1.85;;;;;;;;;;8350368;28;20952;-60
2022/08/21 21:28:59;;;;;;;3.15;1.48;;;;;;;;;;8349875;28;20100;-58
2022/08/21 21:32:59;;;;;;;2.85;1.50;;;;;;;;;;8351921;28;20044;-58
2022/08/21 21:37:04;;;;;;;3.83;1.47;;;;;;;;;;8358657;28;20024;-59
2022/08/21 21:41:23;;;;;;;1.45;1.20;;;;;;;;;;8354511;28;20144;-59
2022/08/21 21:45:26;;;;;;;4.10;1.40;;;;;;;;;;8356481;28;20098;-59
2022/08/21 21:49:45;;;;;;;1.90;1.35;;;;;;;;;;8355136;28;20126;-59
2022/08/21 21:53:51;;;;;;;5.22;1.33;;;;;;;;;;8358866;28;20050;-59
2022/08/21 21:58:00;;;;;;;3.42;1.45;;;;;;;;;;8359060;28;20426;-60
2022/08/21 22:02:00;;;;;;;3.25;1.48;;;;;;;;;;8355098;28;20389;-59
2022/08/21 22:06:11;;;;;;;3.03;1.33;;;;;;;;;;8354994;28;20135;-59
2022/08/21 22:10:12;;;;;;;3.17;1.33;;;;;;;;;;8354882;28;20031;-59
2022/08/21 22:14:14;;;;;;;4.47;1.65;;;;;;;;;;8358481;28;20337;-59
2022/08/21 22:18:17;;;;;;;3.63;1.50;;;;;;;;;;8358663;28;20105;-59
2022/08/21 22:22:19;;;;;;;2.92;1.65;;;;;;;;;;8357481;28;20028;-60
2022/08/21 22:26:34;;;;;;;5.65;1.50;;;;;;;;;;8359938;28;20175;-59
2022/08/21 22:30:37;;;;;;;2.38;1.23;;;;;;;;;;8360232;28;20048;-59
2022/08/21 22:34:37;;;;;;;3.30;1.27;;;;;;;;;;8363013;28;20035;-58
2022/08/21 22:38:38;;;;;;;5.33;1.43;;;;;;;;;;8362331;28;20029;-60
2022/08/21 22:42:38;;;;;;;1.85;1.20;;;;;;;;;;8359219;28;20266;-59
2022/08/21 22:46:38;;;;;;;3.15;1.40;;;;;;;;;;8358598;28;20086;-59
2022/08/21 22:50:39;;;;;;;2.03;1.35;;;;;;;;;;8359358;28;20024;-60
2022/08/21 22:54:41;;;;;;;2.50;1.40;;;;;;;;;;8360935;28;20071;-59
2022/08/21 22:58:57;;;;;;;3.85;1.38;;;;;;;;;;8356940;28;20027;-59
2022/08/21 23:03:00;;;;;;;3.38;1.52;;;;;;;;;;8358288;28;20036;-59
2022/08/21 23:07:01;;;;;;;2.60;1.40;;;;;;;;;;8362574;28;20039;-60
2022/08/21 23:11:11;;;;;;;3.40;1.63;;;;;;;;;;8361828;28;20887;-58
2022/08/21 23:15:12;;;;;;;5.20;1.55;;;;;;;;;;8361502;28;20843;-60
2022/08/21 23:19:14;;;;;;;2.53;1.20;;;;;;;;;;8367692;28;20059;-61
2022/08/21 23:23:17;;;;;;;2.38;1.30;;;;;;;;;;8363623;28;20028;-59
2022/08/21 23:27:37;;;;;;;4.85;1.58;;;;;;;;;;8361818;28;20051;-59
2022/08/21 23:31:47;;;;;;;3.08;1.20;;;;;;;;;;8363852;28;20148;-60
2022/08/21 23:40:35;;;;;;;2.72;1.08;;;;;;;;;;8356559;28;20035;-60
2022/08/21 23:44:38;;;;;;;4.18;1.60;;;;;;;;;;8364016;28;20048;-60
2022/08/21 23:48:57;;;;;;;2.70;1.13;;;;;;;;;;8363333;28;20043;-59
2022/08/21 23:53:06;;;;;;;5.97;1.20;;;;;;;;;;8365315;28;20028;-59
2022/08/21 23:57:26;;;;;;;2.55;1.30;;;;;;;;;;8363466;28;20796;-58
